DLH2EP EDDF-EKCH
Flight info
| Callsign | DLH2EP |
|---|---|
| Flight time | 1h 8m |
| Altitude | 37000 |
| Route | MARUN8M/25C MARUN Y150 TOLGI DCT SAS DCT MAKEL N851 GESKA Z711 MONAK |
| Aircraft | A321/M-SDE2E3FGIJ1LORWXYZ/HB1 |
Departure
| Time | 2026-05-04 18:14 |
|---|---|
| Airport | Frankfurt Main Airport (EDDF) |
Arrival
| Time | 2026-05-04 19:23 |
|---|---|
| Airport | Copenhagen Kastrup Airport (EKCH) |
| Time | Latitude | Longitude | Altitude | Speed | Heading |
|---|---|---|---|---|---|
| 2026-05-04 17:43 | 50.04787 | 8.56765 | 363 ft | 0 kts | 115° |
| 2026-05-04 18:02 | 50.04791 | 8.56751 | 364 ft | 2 kts | 94° |
| 2026-05-04 18:02 | 50.04790 | 8.56728 | 362 ft | 2 kts | 96° |
| 2026-05-04 18:02 | 50.04793 | 8.56708 | 361 ft | 4 kts | 112° |
| 2026-05-04 18:02 | 50.04803 | 8.56690 | 365 ft | 3 kts | 185° |
| 2026-05-04 18:03 | 50.04821 | 8.56688 | 364 ft | 0 kts | 170° |
| 2026-05-04 18:03 | 50.04798 | 8.56684 | 364 ft | 2 kts | 197° |
| 2026-05-04 18:03 | 50.04791 | 8.56680 | 363 ft | 1 kts | 201° |
| 2026-05-04 18:03 | 50.04781 | 8.56673 | 361 ft | 0 kts | 203° |
| 2026-05-04 18:06 | 50.04767 | 8.56663 | 359 ft | 5 kts | 207° |
| 2026-05-04 18:06 | 50.04736 | 8.56614 | 365 ft | 9 kts | 230° |
| 2026-05-04 18:07 | 50.04695 | 8.56532 | 356 ft | 10 kts | 236° |
| 2026-05-04 18:07 | 50.04657 | 8.56396 | 364 ft | 18 kts | 250° |
| 2026-05-04 18:07 | 50.04611 | 8.56198 | 362 ft | 20 kts | 249° |
| 2026-05-04 18:07 | 50.04557 | 8.55988 | 357 ft | 19 kts | 235° |
| 2026-05-04 18:08 | 50.04526 | 8.55955 | 362 ft | 1 kts | 210° |
| 2026-05-04 18:08 | 50.04523 | 8.55952 | 356 ft | 0 kts | 210° |
| 2026-05-04 18:08 | 50.04518 | 8.55950 | 356 ft | 3 kts | 200° |
| 2026-05-04 18:08 | 50.04476 | 8.55934 | 359 ft | 8 kts | 191° |
| 2026-05-04 18:09 | 50.04318 | 8.56069 | 356 ft | 17 kts | 154° |
| 2026-05-04 18:09 | 50.04170 | 8.56282 | 356 ft | 17 kts | 158° |
| 2026-05-04 18:10 | 50.04157 | 8.56398 | 360 ft | 11 kts | 73° |
| 2026-05-04 18:10 | 50.04189 | 8.56539 | 361 ft | 15 kts | 69° |
| 2026-05-04 18:10 | 50.04227 | 8.56697 | 364 ft | 16 kts | 70° |
| 2026-05-04 18:10 | 50.04269 | 8.56872 | 364 ft | 21 kts | 70° |
| 2026-05-04 18:11 | 50.04322 | 8.57098 | 366 ft | 23 kts | 72° |
| 2026-05-04 18:11 | 50.04376 | 8.57333 | 366 ft | 24 kts | 71° |
| 2026-05-04 18:11 | 50.04425 | 8.57560 | 363 ft | 16 kts | 89° |
| 2026-05-04 18:11 | 50.04412 | 8.57617 | 370 ft | 3 kts | 125° |
| 2026-05-04 18:12 | 50.04392 | 8.57645 | 365 ft | 5 kts | 147° |
| 2026-05-04 18:12 | 50.04376 | 8.57659 | 364 ft | 0 kts | 153° |
| 2026-05-04 18:13 | 50.04348 | 8.57676 | 364 ft | 11 kts | 162° |
| 2026-05-04 18:13 | 50.04283 | 8.57709 | 362 ft | 4 kts | 200° |
| 2026-05-04 18:13 | 50.04260 | 8.57641 | 366 ft | 26 kts | 251° |
| 2026-05-04 18:14 | 50.04100 | 8.56962 | 364 ft | 105 kts | 250° |
| 2026-05-04 18:14 | 50.03770 | 8.55565 | 380 ft | 163 kts | 250° |
| 2026-05-04 18:14 | 50.03390 | 8.53957 | 1178 ft | 157 kts | 251° |
| 2026-05-04 18:15 | 50.02521 | 8.50555 | 2153 ft | 191 kts | 239° |
| 2026-05-04 18:15 | 50.00063 | 8.48515 | 3232 ft | 208 kts | 198° |
| 2026-05-04 18:15 | 49.98662 | 8.47914 | 3903 ft | 209 kts | 194° |
| 2026-05-04 18:16 | 49.97236 | 8.47371 | 4595 ft | 209 kts | 194° |
| 2026-05-04 18:16 | 49.95837 | 8.46813 | 5244 ft | 210 kts | 195° |
| 2026-05-04 18:16 | 49.94362 | 8.46189 | 5543 ft | 232 kts | 195° |
| 2026-05-04 18:17 | 49.91224 | 8.44392 | 6972 ft | 244 kts | 220° |
| 2026-05-04 18:17 | 49.90289 | 8.42236 | 7748 ft | 250 kts | 250° |
| 2026-05-04 18:17 | 49.91067 | 8.37042 | 9346 ft | 270 kts | 313° |
| 2026-05-04 18:18 | 49.92725 | 8.35556 | 9933 ft | 289 kts | 335° |
| 2026-05-04 18:18 | 49.94648 | 8.34406 | 10440 ft | 300 kts | 335° |
| 2026-05-04 18:18 | 49.96637 | 8.33132 | 10765 ft | 319 kts | 334° |
| 2026-05-04 18:18 | 49.98762 | 8.31724 | 11004 ft | 339 kts | 334° |
| 2026-05-04 18:19 | 50.03257 | 8.29150 | 12181 ft | 355 kts | 347° |
| 2026-05-04 18:19 | 50.05745 | 8.28885 | 12846 ft | 362 kts | 1° |
| 2026-05-04 18:19 | 50.08234 | 8.29546 | 13559 ft | 366 kts | 15° |
| 2026-05-04 18:20 | 50.10647 | 8.30873 | 14158 ft | 370 kts | 18° |
| 2026-05-04 18:20 | 50.13094 | 8.32170 | 14746 ft | 373 kts | 17° |
| 2026-05-04 18:20 | 50.15574 | 8.33439 | 15357 ft | 376 kts | 17° |
| 2026-05-04 18:20 | 50.18043 | 8.34707 | 15956 ft | 379 kts | 17° |
| 2026-05-04 18:21 | 50.20569 | 8.36015 | 16573 ft | 383 kts | 17° |
| 2026-05-04 18:21 | 50.23100 | 8.37364 | 17185 ft | 386 kts | 20° |
| 2026-05-04 18:21 | 50.25476 | 8.39373 | 17749 ft | 391 kts | 34° |
| 2026-05-04 18:21 | 50.27738 | 8.41780 | 18326 ft | 394 kts | 34° |
| 2026-05-04 18:22 | 50.29994 | 8.44172 | 18815 ft | 397 kts | 33° |
| 2026-05-04 18:22 | 50.32317 | 8.46565 | 19329 ft | 400 kts | 32° |
| 2026-05-04 18:22 | 50.34668 | 8.48944 | 19837 ft | 403 kts | 32° |
| 2026-05-04 18:22 | 50.37033 | 8.51327 | 20360 ft | 406 kts | 32° |
| 2026-05-04 18:23 | 50.39343 | 8.53660 | 20849 ft | 409 kts | 32° |
| 2026-05-04 18:23 | 50.41746 | 8.56100 | 21341 ft | 412 kts | 32° |
| 2026-05-04 18:23 | 50.44157 | 8.58558 | 21822 ft | 415 kts | 32° |
| 2026-05-04 18:23 | 50.46598 | 8.61052 | 22289 ft | 418 kts | 32° |
| 2026-05-04 18:24 | 50.49046 | 8.63563 | 22763 ft | 421 kts | 32° |
| 2026-05-04 18:24 | 50.51472 | 8.66062 | 23220 ft | 424 kts | 32° |
| 2026-05-04 18:24 | 50.53949 | 8.68619 | 23639 ft | 427 kts | 32° |
| 2026-05-04 18:24 | 50.56435 | 8.71193 | 24011 ft | 430 kts | 32° |
| 2026-05-04 18:25 | 50.58944 | 8.73790 | 24386 ft | 433 kts | 32° |
| 2026-05-04 18:25 | 50.61471 | 8.76405 | 24751 ft | 436 kts | 32° |
| 2026-05-04 18:25 | 50.64013 | 8.79040 | 25132 ft | 439 kts | 32° |
| 2026-05-04 18:25 | 50.66573 | 8.81693 | 25499 ft | 442 kts | 32° |
| 2026-05-04 18:26 | 50.69150 | 8.84367 | 25865 ft | 445 kts | 32° |
| 2026-05-04 18:26 | 50.71753 | 8.87070 | 26229 ft | 448 kts | 32° |
| 2026-05-04 18:26 | 50.74369 | 8.89791 | 26594 ft | 451 kts | 32° |
| 2026-05-04 18:26 | 50.77006 | 8.92531 | 26955 ft | 454 kts | 32° |
| 2026-05-04 18:27 | 50.79653 | 8.95286 | 27310 ft | 457 kts | 32° |
| 2026-05-04 18:27 | 50.82314 | 8.98065 | 27660 ft | 460 kts | 32° |
| 2026-05-04 18:27 | 50.84995 | 9.00873 | 28010 ft | 463 kts | 32° |
| 2026-05-04 18:27 | 50.87649 | 9.03665 | 28354 ft | 466 kts | 32° |
| 2026-05-04 18:28 | 50.90359 | 9.06516 | 28702 ft | 469 kts | 32° |
| 2026-05-04 18:28 | 50.93089 | 9.09364 | 29056 ft | 471 kts | 31° |
| 2026-05-04 18:28 | 50.95845 | 9.12220 | 29403 ft | 474 kts | 31° |
| 2026-05-04 18:28 | 50.98622 | 9.15095 | 29773 ft | 477 kts | 31° |
| 2026-05-04 18:29 | 51.01417 | 9.17991 | 30098 ft | 480 kts | 31° |
| 2026-05-04 18:29 | 51.04223 | 9.20909 | 30399 ft | 482 kts | 31° |
| 2026-05-04 18:29 | 51.07034 | 9.23846 | 30700 ft | 484 kts | 31° |
| 2026-05-04 18:29 | 51.09902 | 9.26515 | 30973 ft | 482 kts | 22° |
| 2026-05-04 18:30 | 51.16091 | 9.30729 | 31546 ft | 484 kts | 20° |
| 2026-05-04 18:30 | 51.19193 | 9.32876 | 31823 ft | 486 kts | 20° |
| 2026-05-04 18:30 | 51.22298 | 9.35059 | 32178 ft | 485 kts | 21° |
| 2026-05-04 18:31 | 51.25378 | 9.37243 | 32554 ft | 484 kts | 21° |
| 2026-05-04 18:31 | 51.28417 | 9.39395 | 32911 ft | 483 kts | 21° |
| 2026-05-04 18:31 | 51.31494 | 9.41563 | 33286 ft | 482 kts | 20° |
| 2026-05-04 18:31 | 51.34564 | 9.43722 | 33648 ft | 481 kts | 20° |
| 2026-05-04 18:32 | 51.37637 | 9.45880 | 33999 ft | 480 kts | 20° |
| 2026-05-04 18:32 | 51.40699 | 9.48033 | 34303 ft | 480 kts | 20° |
| 2026-05-04 18:32 | 51.43749 | 9.50181 | 34605 ft | 479 kts | 20° |
| 2026-05-04 18:32 | 51.46804 | 9.52333 | 34904 ft | 479 kts | 20° |
| 2026-05-04 18:33 | 51.49862 | 9.54489 | 35201 ft | 478 kts | 20° |
| 2026-05-04 18:33 | 51.52906 | 9.56638 | 35493 ft | 478 kts | 20° |
| 2026-05-04 18:33 | 51.55950 | 9.58789 | 35778 ft | 477 kts | 21° |
| 2026-05-04 18:33 | 51.58983 | 9.60939 | 36064 ft | 476 kts | 21° |
| 2026-05-04 18:34 | 51.61983 | 9.63074 | 36348 ft | 475 kts | 21° |
| 2026-05-04 18:34 | 51.65019 | 9.65241 | 36619 ft | 475 kts | 21° |
| 2026-05-04 18:34 | 51.68038 | 9.67396 | 36889 ft | 474 kts | 21° |
| 2026-05-04 18:35 | 51.74060 | 9.71691 | 36994 ft | 471 kts | 21° |
| 2026-05-04 18:35 | 51.80006 | 9.75958 | 36988 ft | 469 kts | 21° |
| 2026-05-04 18:36 | 51.85971 | 9.80251 | 36977 ft | 469 kts | 21° |
| 2026-05-04 18:36 | 51.91939 | 9.84541 | 36985 ft | 468 kts | 21° |
| 2026-05-04 18:37 | 51.97897 | 9.88843 | 36983 ft | 469 kts | 21° |
| 2026-05-04 18:37 | 52.03857 | 9.93159 | 36995 ft | 469 kts | 21° |
| 2026-05-04 18:38 | 52.09776 | 9.97465 | 36999 ft | 469 kts | 21° |
| 2026-05-04 18:38 | 52.15740 | 10.01815 | 36992 ft | 469 kts | 21° |
| 2026-05-04 18:39 | 52.21703 | 10.06180 | 36992 ft | 469 kts | 21° |
| 2026-05-04 18:39 | 52.27666 | 10.10554 | 36989 ft | 469 kts | 21° |
| 2026-05-04 18:40 | 52.33593 | 10.14911 | 36990 ft | 469 kts | 21° |
| 2026-05-04 18:40 | 52.39608 | 10.19344 | 36985 ft | 469 kts | 21° |
| 2026-05-04 18:41 | 52.45493 | 10.23703 | 36990 ft | 469 kts | 21° |
| 2026-05-04 18:41 | 52.51455 | 10.28120 | 36992 ft | 469 kts | 21° |
| 2026-05-04 18:42 | 52.57406 | 10.32550 | 36998 ft | 469 kts | 21° |
| 2026-05-04 18:42 | 52.63353 | 10.36995 | 36988 ft | 469 kts | 21° |
| 2026-05-04 18:43 | 52.69257 | 10.41419 | 36987 ft | 469 kts | 21° |
| 2026-05-04 18:43 | 52.74198 | 10.45127 | 36982 ft | 469 kts | 21° |
| 2026-05-04 18:44 | 52.77615 | 10.47703 | 36986 ft | 469 kts | 21° |
| 2026-05-04 18:44 | 52.83533 | 10.52163 | 36992 ft | 469 kts | 21° |
| 2026-05-04 18:45 | 52.88483 | 10.55905 | 36984 ft | 469 kts | 21° |
| 2026-05-04 18:45 | 52.95400 | 10.61150 | 36982 ft | 469 kts | 21° |
| 2026-05-04 18:46 | 53.00381 | 10.64940 | 36982 ft | 469 kts | 21° |
| 2026-05-04 18:46 | 53.06283 | 10.69439 | 36983 ft | 469 kts | 21° |
| 2026-05-04 18:47 | 53.12216 | 10.73982 | 36981 ft | 469 kts | 21° |
| 2026-05-04 18:47 | 53.18150 | 10.78540 | 36986 ft | 469 kts | 21° |
| 2026-05-04 18:48 | 53.24083 | 10.83109 | 36987 ft | 469 kts | 21° |
| 2026-05-04 18:48 | 53.29976 | 10.87661 | 36993 ft | 468 kts | 21° |
| 2026-05-04 18:49 | 53.35890 | 10.92240 | 36990 ft | 468 kts | 21° |
| 2026-05-04 18:49 | 53.41792 | 10.96832 | 36997 ft | 467 kts | 21° |
| 2026-05-04 18:50 | 53.47699 | 11.01436 | 36995 ft | 467 kts | 21° |
| 2026-05-04 18:50 | 53.53584 | 11.06035 | 36989 ft | 466 kts | 21° |
| 2026-05-04 18:50 | 53.56487 | 11.08314 | 36747 ft | 465 kts | 21° |
| 2026-05-04 18:51 | 53.59408 | 11.10645 | 36486 ft | 464 kts | 21° |
| 2026-05-04 18:51 | 53.62309 | 11.13065 | 36230 ft | 465 kts | 22° |
| 2026-05-04 18:51 | 53.65198 | 11.15559 | 35975 ft | 465 kts | 23° |
| 2026-05-04 18:51 | 53.68077 | 11.18092 | 35727 ft | 465 kts | 23° |
| 2026-05-04 18:52 | 53.70946 | 11.20633 | 35476 ft | 464 kts | 23° |
| 2026-05-04 18:52 | 53.73767 | 11.23124 | 35233 ft | 462 kts | 22° |
| 2026-05-04 18:52 | 53.76583 | 11.25595 | 34989 ft | 460 kts | 22° |
| 2026-05-04 18:52 | 53.79455 | 11.28093 | 34747 ft | 458 kts | 22° |
| 2026-05-04 18:53 | 53.82291 | 11.30547 | 34511 ft | 456 kts | 21° |
| 2026-05-04 18:53 | 53.85115 | 11.32989 | 34270 ft | 454 kts | 21° |
| 2026-05-04 18:53 | 53.87913 | 11.35417 | 34035 ft | 452 kts | 21° |
| 2026-05-04 18:53 | 53.90705 | 11.37850 | 33770 ft | 451 kts | 21° |
| 2026-05-04 18:54 | 53.93495 | 11.40290 | 33503 ft | 449 kts | 21° |
| 2026-05-04 18:54 | 53.96274 | 11.42730 | 33222 ft | 449 kts | 21° |
| 2026-05-04 18:54 | 53.99043 | 11.45168 | 32955 ft | 448 kts | 21° |
| 2026-05-04 18:54 | 54.01810 | 11.47605 | 32690 ft | 447 kts | 21° |
| 2026-05-04 18:55 | 54.04537 | 11.50008 | 32441 ft | 446 kts | 21° |
| 2026-05-04 18:55 | 54.10036 | 11.54934 | 31573 ft | 449 kts | 22° |
| 2026-05-04 18:55 | 54.12816 | 11.57520 | 30539 ft | 460 kts | 23° |
| 2026-05-04 18:56 | 54.15627 | 11.60190 | 29712 ft | 464 kts | 24° |
| 2026-05-04 18:56 | 54.18436 | 11.62890 | 29122 ft | 460 kts | 24° |
| 2026-05-04 18:56 | 54.21204 | 11.65559 | 28663 ft | 453 kts | 24° |
| 2026-05-04 18:56 | 54.23942 | 11.68189 | 28194 ft | 447 kts | 23° |
| 2026-05-04 18:57 | 54.26638 | 11.70762 | 27734 ft | 441 kts | 23° |
| 2026-05-04 18:57 | 54.29299 | 11.73294 | 27291 ft | 435 kts | 23° |
| 2026-05-04 18:57 | 54.31931 | 11.75791 | 26845 ft | 429 kts | 22° |
| 2026-05-04 18:57 | 54.34534 | 11.78259 | 26404 ft | 424 kts | 22° |
| 2026-05-04 18:58 | 54.37070 | 11.80666 | 25972 ft | 420 kts | 22° |
| 2026-05-04 18:58 | 54.39642 | 11.83117 | 25523 ft | 416 kts | 22° |
| 2026-05-04 18:58 | 54.42135 | 11.85502 | 25089 ft | 412 kts | 22° |
| 2026-05-04 18:58 | 54.44623 | 11.87885 | 24632 ft | 409 kts | 22° |
| 2026-05-04 18:59 | 54.47100 | 11.90263 | 24175 ft | 406 kts | 22° |
| 2026-05-04 18:59 | 54.49560 | 11.92627 | 23725 ft | 403 kts | 22° |
| 2026-05-04 18:59 | 54.51998 | 11.94976 | 23209 ft | 400 kts | 22° |
| 2026-05-04 18:59 | 54.54418 | 11.97313 | 22742 ft | 396 kts | 23° |
| 2026-05-04 19:00 | 54.56802 | 11.99617 | 22284 ft | 391 kts | 23° |
| 2026-05-04 19:00 | 54.59165 | 12.01903 | 21822 ft | 386 kts | 23° |
| 2026-05-04 19:00 | 54.61495 | 12.04156 | 21362 ft | 382 kts | 24° |
| 2026-05-04 19:00 | 54.63778 | 12.06362 | 20915 ft | 377 kts | 24° |
| 2026-05-04 19:01 | 54.66059 | 12.08569 | 20469 ft | 374 kts | 24° |
| 2026-05-04 19:01 | 54.68314 | 12.10753 | 20024 ft | 370 kts | 24° |
| 2026-05-04 19:01 | 54.70555 | 12.12928 | 19569 ft | 367 kts | 25° |
| 2026-05-04 19:01 | 54.72770 | 12.15082 | 19146 ft | 363 kts | 25° |
| 2026-05-04 19:02 | 54.74966 | 12.17224 | 18711 ft | 360 kts | 25° |
| 2026-05-04 19:02 | 54.77131 | 12.19337 | 18274 ft | 357 kts | 25° |
| 2026-05-04 19:02 | 54.79286 | 12.21446 | 17810 ft | 354 kts | 25° |
| 2026-05-04 19:02 | 54.81412 | 12.23534 | 17385 ft | 349 kts | 26° |
| 2026-05-04 19:03 | 54.83489 | 12.25576 | 16977 ft | 345 kts | 25° |
| 2026-05-04 19:03 | 54.85565 | 12.27613 | 16555 ft | 341 kts | 25° |
| 2026-05-04 19:03 | 54.87622 | 12.29632 | 16143 ft | 337 kts | 25° |
| 2026-05-04 19:03 | 54.89656 | 12.31631 | 15738 ft | 333 kts | 25° |
| 2026-05-04 19:04 | 54.91666 | 12.33611 | 15330 ft | 331 kts | 25° |
| 2026-05-04 19:04 | 54.93685 | 12.35595 | 14942 ft | 334 kts | 25° |
| 2026-05-04 19:04 | 54.95689 | 12.37568 | 14539 ft | 333 kts | 25° |
| 2026-05-04 19:04 | 54.97702 | 12.39560 | 14138 ft | 332 kts | 25° |
| 2026-05-04 19:05 | 54.99707 | 12.41549 | 13730 ft | 330 kts | 25° |
| 2026-05-04 19:05 | 55.01694 | 12.43518 | 13304 ft | 328 kts | 25° |
| 2026-05-04 19:05 | 55.03676 | 12.45483 | 12909 ft | 326 kts | 25° |
| 2026-05-04 19:05 | 55.05640 | 12.47428 | 12517 ft | 323 kts | 25° |
| 2026-05-04 19:06 | 55.07607 | 12.49282 | 12167 ft | 318 kts | 19° |
| 2026-05-04 19:06 | 55.09646 | 12.50776 | 11987 ft | 317 kts | 18° |
| 2026-05-04 19:06 | 55.11686 | 12.52224 | 11956 ft | 317 kts | 17° |
| 2026-05-04 19:06 | 55.13714 | 12.53646 | 11962 ft | 317 kts | 17° |
| 2026-05-04 19:07 | 55.15763 | 12.55086 | 11941 ft | 316 kts | 17° |
| 2026-05-04 19:07 | 55.17799 | 12.56521 | 11682 ft | 315 kts | 17° |
| 2026-05-04 19:07 | 55.19827 | 12.57949 | 11429 ft | 314 kts | 17° |
| 2026-05-04 19:07 | 55.21849 | 12.59372 | 11183 ft | 312 kts | 17° |
| 2026-05-04 19:08 | 55.23862 | 12.60787 | 10936 ft | 310 kts | 16° |
| 2026-05-04 19:08 | 55.25930 | 12.61540 | 10681 ft | 301 kts | 358° |
| 2026-05-04 19:08 | 55.28008 | 12.61627 | 10332 ft | 296 kts | 355° |
| 2026-05-04 19:08 | 55.30041 | 12.61640 | 10039 ft | 289 kts | 355° |
| 2026-05-04 19:09 | 55.32044 | 12.61651 | 9672 ft | 287 kts | 357° |
| 2026-05-04 19:09 | 55.34009 | 12.62342 | 9254 ft | 292 kts | 20° |
| 2026-05-04 19:09 | 55.35805 | 12.64012 | 8962 ft | 290 kts | 25° |
| 2026-05-04 19:09 | 55.37563 | 12.65730 | 8839 ft | 294 kts | 25° |
| 2026-05-04 19:10 | 55.39356 | 12.67446 | 8709 ft | 293 kts | 24° |
| 2026-05-04 19:10 | 55.41165 | 12.69104 | 8584 ft | 293 kts | 23° |
| 2026-05-04 19:10 | 55.42981 | 12.70735 | 8456 ft | 292 kts | 23° |
| 2026-05-04 19:10 | 55.44793 | 12.72354 | 8253 ft | 290 kts | 23° |
| 2026-05-04 19:11 | 55.46592 | 12.73961 | 7865 ft | 288 kts | 23° |
| 2026-05-04 19:11 | 55.48353 | 12.75537 | 7479 ft | 286 kts | 23° |
| 2026-05-04 19:11 | 55.50126 | 12.77131 | 7103 ft | 285 kts | 23° |
| 2026-05-04 19:11 | 55.51886 | 12.78721 | 6730 ft | 283 kts | 23° |
| 2026-05-04 19:12 | 55.53631 | 12.80305 | 6363 ft | 281 kts | 24° |
| 2026-05-04 19:12 | 55.57052 | 12.83426 | 5843 ft | 267 kts | 24° |
| 2026-05-04 19:12 | 55.58667 | 12.84903 | 5571 ft | 258 kts | 23° |
| 2026-05-04 19:13 | 55.60253 | 12.86352 | 5306 ft | 253 kts | 23° |
| 2026-05-04 19:13 | 55.61771 | 12.87742 | 5114 ft | 244 kts | 23° |
| 2026-05-04 19:13 | 55.63201 | 12.89342 | 4669 ft | 244 kts | 36° |
| 2026-05-04 19:13 | 55.64473 | 12.91311 | 4214 ft | 242 kts | 38° |
| 2026-05-04 19:14 | 55.65734 | 12.93281 | 3899 ft | 240 kts | 38° |
| 2026-05-04 19:14 | 55.66984 | 12.95216 | 3585 ft | 237 kts | 38° |
| 2026-05-04 19:14 | 55.68208 | 12.97101 | 3284 ft | 235 kts | 38° |
| 2026-05-04 19:14 | 55.69429 | 12.99006 | 3029 ft | 231 kts | 39° |
| 2026-05-04 19:15 | 55.70637 | 13.00926 | 2998 ft | 233 kts | 39° |
| 2026-05-04 19:15 | 55.71862 | 13.02812 | 2994 ft | 232 kts | 31° |
| 2026-05-04 19:15 | 55.73290 | 13.04011 | 2998 ft | 229 kts | 17° |
| 2026-05-04 19:15 | 55.74788 | 13.04955 | 2995 ft | 228 kts | 16° |
| 2026-05-04 19:16 | 55.76308 | 13.05815 | 2993 ft | 227 kts | 7° |
| 2026-05-04 19:16 | 55.77831 | 13.05589 | 2991 ft | 219 kts | 334° |
| 2026-05-04 19:16 | 55.79072 | 13.04066 | 2991 ft | 214 kts | 313° |
| 2026-05-04 19:16 | 55.79913 | 13.02040 | 2997 ft | 193 kts | 296° |
| 2026-05-04 19:17 | 55.80337 | 12.99878 | 2997 ft | 181 kts | 281° |
| 2026-05-04 19:17 | 55.80407 | 12.97684 | 3001 ft | 177 kts | 266° |
| 2026-05-04 19:17 | 55.80152 | 12.95566 | 2996 ft | 178 kts | 252° |
| 2026-05-04 19:17 | 55.79577 | 12.93610 | 2994 ft | 180 kts | 237° |
| 2026-05-04 19:18 | 55.78705 | 12.91970 | 2998 ft | 186 kts | 224° |
| 2026-05-04 19:18 | 55.77716 | 12.90423 | 3001 ft | 191 kts | 225° |
| 2026-05-04 19:18 | 55.76714 | 12.88851 | 2998 ft | 192 kts | 225° |
| 2026-05-04 19:18 | 55.75706 | 12.87273 | 3002 ft | 193 kts | 225° |
| 2026-05-04 19:19 | 55.74700 | 12.85699 | 3001 ft | 193 kts | 225° |
| 2026-05-04 19:19 | 55.73701 | 12.84137 | 2933 ft | 194 kts | 225° |
| 2026-05-04 19:19 | 55.72695 | 12.82566 | 2723 ft | 189 kts | 225° |
| 2026-05-04 19:19 | 55.71721 | 12.81047 | 2488 ft | 184 kts | 225° |
| 2026-05-04 19:20 | 55.70761 | 12.79548 | 2239 ft | 182 kts | 225° |
| 2026-05-04 19:20 | 55.69812 | 12.78068 | 1997 ft | 181 kts | 225° |
| 2026-05-04 19:20 | 55.68868 | 12.76597 | 1750 ft | 180 kts | 225° |
| 2026-05-04 19:20 | 55.67956 | 12.75179 | 1521 ft | 165 kts | 225° |
| 2026-05-04 19:21 | 55.67153 | 12.73933 | 1308 ft | 147 kts | 225° |
| 2026-05-04 19:21 | 55.66416 | 12.72785 | 1101 ft | 137 kts | 225° |
| 2026-05-04 19:21 | 55.65703 | 12.71674 | 902 ft | 136 kts | 224° |
| 2026-05-04 19:21 | 55.64997 | 12.70577 | 703 ft | 135 kts | 224° |
| 2026-05-04 19:22 | 55.64294 | 12.69484 | 535 ft | 134 kts | 224° |
| 2026-05-04 19:22 | 55.63592 | 12.68380 | 358 ft | 135 kts | 224° |
| 2026-05-04 19:22 | 55.62872 | 12.67285 | 145 ft | 138 kts | 224° |
| 2026-05-04 19:22 | 55.62165 | 12.66178 | 28 ft | 130 kts | 225° |
| 2026-05-04 19:23 | 55.61628 | 12.65335 | 16 ft | 69 kts | 219° |
| 2026-05-04 19:23 | 55.61317 | 12.64829 | 18 ft | 48 kts | 229° |
| 2026-05-04 19:23 | 55.61219 | 12.64436 | 19 ft | 33 kts | 250° |
| 2026-05-04 19:23 | 55.61190 | 12.64179 | 17 ft | 16 kts | 289° |
| 2026-05-04 19:24 | 55.61288 | 12.64128 | 17 ft | 17 kts | 28° |
| 2026-05-04 19:24 | 55.61394 | 12.64244 | 17 ft | 19 kts | 35° |
| 2026-05-04 19:24 | 55.61511 | 12.64379 | 17 ft | 21 kts | 32° |
| 2026-05-04 19:24 | 55.61613 | 12.64499 | 19 ft | 13 kts | 34° |
| 2026-05-04 19:25 | 55.61657 | 12.64550 | 17 ft | 0 kts | 31° |
| 2026-05-04 19:25 | 55.61658 | 12.64551 | 17 ft | 1 kts | 31° |
| 2026-05-04 19:25 | 55.61674 | 12.64567 | 19 ft | 6 kts | 32° |
| 2026-05-04 19:25 | 55.61730 | 12.64632 | 17 ft | 13 kts | 32° |
| 2026-05-04 19:26 | 55.61821 | 12.64736 | 17 ft | 19 kts | 33° |
| 2026-05-04 19:26 | 55.61941 | 12.64873 | 17 ft | 22 kts | 32° |
| 2026-05-04 19:26 | 55.62062 | 12.65009 | 18 ft | 16 kts | 35° |
| 2026-05-04 19:26 | 55.62114 | 12.65073 | 20 ft | 0 kts | 34° |
| 2026-05-04 19:28 | 55.62123 | 12.65083 | 18 ft | 6 kts | 34° |
| 2026-05-04 19:28 | 55.62186 | 12.65157 | 18 ft | 15 kts | 32° |
| 2026-05-04 19:29 | 55.62269 | 12.65089 | 17 ft | 14 kts | 304° |
| 2026-05-04 19:29 | 55.62321 | 12.64949 | 19 ft | 13 kts | 302° |
| 2026-05-04 19:29 | 55.62375 | 12.64802 | 17 ft | 15 kts | 303° |
| 2026-05-04 19:29 | 55.62435 | 12.64638 | 17 ft | 17 kts | 303° |
| 2026-05-04 19:30 | 55.62503 | 12.64454 | 17 ft | 19 kts | 303° |
| 2026-05-04 19:30 | 55.62575 | 12.64266 | 17 ft | 15 kts | 305° |
| 2026-05-04 19:30 | 55.62626 | 12.64123 | 19 ft | 15 kts | 301° |
| 2026-05-04 19:30 | 55.62685 | 12.63983 | 17 ft | 10 kts | 338° |
| 2026-05-04 19:31 | 55.62720 | 12.64018 | 19 ft | 1 kts | 36° |
| 2026-05-04 19:31 | 55.62732 | 12.64031 | 18 ft | 3 kts | 33° |
| 2026-05-04 19:31 | 55.62738 | 12.64039 | 17 ft | 0 kts | 33° |
| 2026-05-04 19:31 | 55.62739 | 12.64040 | 17 ft | 0 kts | 33° |